createdAt,value
2022-12-08T00:00:49.811Z,3.41
2022-12-08T00:04:31.488Z,5.67
2022-12-08T00:08:13.321Z,4.13
2022-12-08T00:11:55.062Z,5.18
2022-12-08T00:15:36.714Z,3.53
2022-12-08T00:19:18.447Z,3.88
2022-12-08T00:23:00.195Z,4.57
2022-12-08T00:26:41.793Z,2.54
2022-12-08T00:30:23.534Z,4.56
2022-12-08T00:34:05.167Z,4.23
2022-12-08T00:37:46.787Z,4.65
2022-12-08T00:41:28.371Z,2.61
2022-12-08T00:45:09.984Z,2.92
2022-12-08T00:48:51.723Z,3.03
2022-12-08T00:52:33.435Z,3.88
2022-12-08T00:56:15.103Z,3.66
2022-12-08T00:59:56.829Z,3.80
2022-12-08T01:03:38.703Z,4.69
2022-12-08T01:07:20.443Z,5.82
2022-12-08T01:11:02.132Z,4.18
2022-12-08T01:14:43.784Z,4.41
2022-12-08T01:18:25.457Z,3.93
2022-12-08T01:22:07.208Z,4.82
2022-12-08T01:25:48.815Z,2.91
2022-12-08T01:29:30.419Z,3.79
2022-12-08T01:36:52.063Z,1.70
2022-12-08T01:44:13.751Z,2.19
2022-12-08T01:47:55.449Z,4.42
2022-12-08T01:51:37.055Z,3.30
2022-12-08T01:55:19.771Z,4.39
2022-12-08T01:59:01.434Z,4.61
2022-12-08T02:10:03.629Z,4.55
2022-12-08T02:17:24.911Z,4.73
2022-12-08T02:21:06.510Z,3.44
2022-12-08T02:28:28.258Z,3.61
2022-12-08T02:32:09.817Z,2.67
2022-12-08T02:35:51.417Z,3.54
2022-12-08T02:46:53.189Z,3.44
2022-12-08T02:50:34.740Z,2.22
2022-12-08T02:57:56.376Z,3.89
2022-12-08T03:08:58.125Z,2.09
2022-12-08T03:16:20.988Z,3.17
2022-12-08T03:20:02.979Z,2.09
2022-12-08T03:23:44.121Z,3.72
2022-12-08T03:27:25.738Z,2.48
2022-12-08T03:31:07.426Z,2.61
2022-12-08T03:34:48.897Z,4.31
2022-12-08T03:42:10.577Z,3.09
2022-12-08T03:45:52.196Z,6.78
2022-12-08T03:49:33.754Z,3.87
2022-12-08T03:53:15.352Z,2.09
2022-12-08T03:56:57.104Z,4.68
2022-12-08T04:00:38.827Z,4.89
2022-12-08T04:04:20.661Z,6.69
2022-12-08T04:08:02.362Z,3.84
2022-12-08T04:11:43.948Z,3.73
2022-12-08T04:15:25.662Z,3.71
2022-12-08T04:19:08.227Z,4.01
2022-12-08T04:22:49.896Z,3.66
2022-12-08T04:33:51.591Z,0.00
2022-12-08T04:37:35.198Z,2.33
2022-12-08T04:44:56.885Z,1.96
2022-12-08T04:55:58.583Z,0.00
2022-12-08T05:07:00.342Z,0.00
2022-12-08T05:10:41.887Z,2.35
2022-12-08T05:21:43.601Z,0.00
2022-12-08T05:29:05.309Z,3.51
2022-12-08T05:40:07.197Z,0.00
2022-12-08T05:51:08.789Z,1.83
2022-12-08T06:02:10.638Z,0.00
2022-12-08T06:13:12.250Z,0.00
2022-12-08T06:24:13.993Z,0.00
2022-12-08T06:35:15.742Z,0.00
2022-12-08T06:46:17.519Z,0.00
2022-12-08T06:49:59.042Z,2.25
2022-12-08T06:57:20.823Z,2.87
2022-12-08T07:01:03.307Z,3.25
2022-12-08T07:04:44.863Z,1.90
2022-12-08T07:12:06.522Z,2.19
2022-12-08T07:15:48.161Z,4.70
2022-12-08T07:19:29.700Z,2.67
2022-12-08T07:23:11.297Z,2.78
2022-12-08T07:34:13.074Z,2.43
2022-12-08T07:37:54.715Z,3.33
2022-12-08T07:41:36.292Z,2.22
2022-12-08T07:45:17.870Z,1.70
2022-12-08T07:48:59.519Z,2.71
2022-12-08T07:56:21.187Z,2.09
2022-12-08T08:00:03.253Z,2.09
2022-12-08T08:03:44.368Z,2.28
2022-12-08T08:14:46.139Z,0.00
2022-12-08T08:18:27.679Z,1.70
2022-12-08T08:22:09.329Z,5.23
2022-12-08T08:29:31.021Z,3.12
2022-12-08T08:40:32.835Z,2.59
2022-12-08T08:44:14.451Z,4.21
2022-12-08T08:47:56.161Z,3.97
2022-12-08T08:51:38.000Z,4.08
2022-12-08T08:55:19.783Z,4.56
2022-12-08T08:59:01.875Z,5.46
2022-12-08T09:02:43.447Z,2.09
2022-12-08T09:13:45.192Z,0.00
2022-12-08T09:21:06.910Z,2.35
2022-12-08T09:24:48.496Z,1.96
2022-12-08T09:28:30.076Z,4.11
2022-12-08T09:32:12.749Z,2.92
2022-12-08T09:39:34.504Z,2.87
2022-12-08T09:50:36.220Z,0.00
2022-12-08T10:01:38.105Z,0.00
2022-12-08T10:12:39.707Z,0.00
2022-12-08T10:23:41.473Z,0.00
2022-12-08T10:34:43.179Z,0.00
2022-12-08T10:45:44.942Z,2.22
2022-12-08T10:53:06.587Z,2.14
2022-12-08T11:00:28.631Z,3.44
2022-12-08T11:11:30.090Z,0.00
2022-12-08T11:18:51.733Z,2.09
2022-12-08T11:22:33.305Z,2.48
2022-12-08T11:33:35.076Z,0.00
2022-12-08T11:44:36.811Z,0.00
2022-12-08T11:55:40.657Z,0.00
2022-12-08T12:06:54.875Z,0.00
2022-12-08T12:17:42.054Z,0.00
2022-12-08T12:28:44.753Z,0.00
2022-12-08T12:39:46.512Z,0.00
2022-12-08T12:50:48.219Z,0.00
2022-12-08T13:01:50.100Z,0.00
2022-12-08T13:12:51.707Z,0.00
2022-12-08T13:23:53.477Z,0.00
2022-12-08T13:34:55.213Z,0.00
2022-12-08T13:46:57.490Z,0.00
2022-12-08T13:57:10.024Z,0.00
2022-12-08T14:08:00.579Z,0.00
2022-12-08T14:19:02.168Z,0.00
2022-12-08T14:30:03.948Z,0.00
2022-12-08T14:41:05.669Z,0.00
2022-12-08T14:52:07.438Z,0.00
2022-12-08T15:03:09.135Z,0.00
2022-12-08T15:14:10.925Z,0.00
2022-12-08T15:25:12.653Z,0.00
2022-12-08T15:36:14.432Z,0.00
2022-12-08T15:47:16.233Z,0.00
2022-12-08T15:58:52.484Z,0.00
2022-12-08T16:09:19.832Z,0.00
2022-12-08T16:20:28.163Z,0.00
2022-12-08T16:31:23.614Z,0.00
2022-12-08T16:42:24.927Z,0.00
2022-12-08T16:53:26.638Z,0.00
2022-12-08T17:04:32.255Z,0.00
2022-12-08T17:15:30.238Z,0.00
2022-12-08T17:26:32.169Z,0.00
2022-12-08T17:37:33.923Z,0.00
2022-12-08T17:48:35.817Z,0.00
2022-12-08T17:59:37.593Z,0.00
2022-12-08T18:10:39.524Z,0.00
2022-12-08T18:21:41.304Z,0.00
2022-12-08T18:32:43.098Z,0.00
2022-12-08T18:43:44.848Z,0.00
2022-12-08T18:55:12.208Z,0.00
2022-12-08T19:05:48.483Z,0.00
2022-12-08T19:16:50.305Z,0.00
2022-12-08T19:27:52.200Z,0.00
2022-12-08T19:38:54.226Z,0.00
2022-12-08T19:49:56.185Z,0.00
2022-12-08T20:00:58.199Z,0.00
2022-12-08T20:12:00.135Z,0.00
2022-12-08T20:23:03.146Z,0.00
2022-12-08T20:34:05.102Z,0.00
2022-12-08T20:41:27.048Z,2.22
2022-12-08T20:52:29.085Z,0.00
2022-12-08T21:03:31.154Z,0.00
2022-12-08T21:14:32.916Z,0.00
2022-12-08T21:25:34.500Z,0.00
2022-12-08T21:36:36.382Z,0.00
2022-12-08T21:47:38.151Z,0.00
2022-12-08T21:58:39.880Z,0.00
2022-12-08T22:09:42.776Z,0.00
2022-12-08T22:20:44.585Z,0.00
2022-12-08T22:24:26.014Z,1.96
2022-12-08T22:31:47.836Z,2.61
2022-12-08T22:42:49.325Z,0.00
2022-12-08T22:53:51.351Z,0.00
2022-12-08T23:04:53.056Z,0.00
2022-12-08T23:15:54.820Z,0.00
2022-12-08T23:27:22.352Z,0.00
2022-12-08T23:38:24.114Z,0.00
2022-12-08T23:49:25.842Z,0.00
